Terminal Aerodrome Forecast
Issued by NWS

Home | Current Version | Previous Version | Text Only | Print | Product List | Glossary On
Versions: 1 2 3 4 5 6 7 8 9 10 11 12 13 14
000
FTAK31 PAFA 292339
TAFAFA
TAF
PAFA 292339Z 3000/0106 VRB05KT P6SM VCSH SCT030 BKN100 BKN200
     FM300400 01005KT P6SM SCT100 BKN200
     FM302200 24004KT P6SM VCSH SCT030 BKN100=

USA.gov is the U.S. government's official web portal to all federal, state and local government web resources and services.